createdAt,value
2023-05-14T00:00:02.825Z,83.51
2023-05-14T00:02:31.659Z,83.29
2023-05-14T00:05:01.339Z,83.33
2023-05-14T00:07:31.072Z,83.35
2023-05-14T00:09:59.562Z,83.38
2023-05-14T00:12:28.232Z,83.26
2023-05-14T00:14:57.037Z,83.11
2023-05-14T00:17:25.403Z,83.06
2023-05-14T00:19:53.728Z,83.17
2023-05-14T00:22:23.740Z,82.64
2023-05-14T00:24:52.002Z,82.67
2023-05-14T00:27:20.274Z,82.49
2023-05-14T00:29:48.513Z,82.64
2023-05-14T00:32:16.902Z,82.86
2023-05-14T00:34:45.154Z,82.61
2023-05-14T00:37:13.435Z,82.47
2023-05-14T00:39:43.451Z,82.61
2023-05-14T00:42:12.164Z,82.50
2023-05-14T00:44:40.437Z,82.58
2023-05-14T00:47:09.329Z,81.91
2023-05-14T00:49:40.056Z,82.22
2023-05-14T00:52:08.906Z,81.88
2023-05-14T00:54:37.652Z,81.99
2023-05-14T00:57:08.154Z,82.17
2023-05-14T00:59:36.926Z,82.21
2023-05-14T01:02:05.447Z,82.46
2023-05-14T01:04:35.045Z,82.36
2023-05-14T01:07:10.742Z,82.29
2023-05-14T01:09:47.447Z,82.35
2023-05-14T01:12:22.650Z,82.56
2023-05-14T01:14:58.566Z,82.36
2023-05-14T01:17:31.131Z,82.34
2023-05-14T01:20:00.424Z,82.75
2023-05-14T01:22:30.168Z,82.75
2023-05-14T01:24:58.545Z,83.00
2023-05-14T01:27:33.347Z,82.88
2023-05-14T01:30:09.013Z,83.16
2023-05-14T01:32:38.744Z,83.15
2023-05-14T01:35:09.438Z,83.20
2023-05-14T01:37:41.345Z,83.24
2023-05-14T01:40:12.723Z,83.04
2023-05-14T01:42:41.734Z,83.07
2023-05-14T01:45:11.676Z,83.39
2023-05-14T01:47:40.042Z,83.39
2023-05-14T01:50:08.779Z,83.29
2023-05-14T01:52:39.595Z,83.62
2023-05-14T01:55:09.078Z,83.46
2023-05-14T01:57:37.636Z,83.65
2023-05-14T02:00:07.358Z,83.27
2023-05-14T02:02:42.087Z,83.32
2023-05-14T02:05:14.039Z,83.36
2023-05-14T02:07:43.776Z,83.26
2023-05-14T02:10:12.313Z,83.21
2023-05-14T02:12:40.771Z,83.02
2023-05-14T02:15:11.155Z,83.01
2023-05-14T02:17:39.755Z,82.96
2023-05-14T02:20:10.420Z,82.81
2023-05-14T02:22:42.302Z,82.78
2023-05-14T02:25:12.652Z,82.46
2023-05-14T02:27:41.115Z,83.01
2023-05-14T02:30:11.081Z,82.78
2023-05-14T02:32:40.339Z,82.79
2023-05-14T02:35:09.809Z,82.84
2023-05-14T02:37:39.128Z,82.75
2023-05-14T02:40:09.249Z,82.96
2023-05-14T02:42:39.066Z,82.72
2023-05-14T02:45:08.514Z,82.93
2023-05-14T02:47:38.217Z,82.80
2023-05-14T02:50:08.283Z,83.05
2023-05-14T02:52:37.029Z,82.62
2023-05-14T02:55:06.881Z,83.16
2023-05-14T02:57:35.496Z,82.85
2023-05-14T03:00:06.730Z,82.66
2023-05-14T03:02:35.995Z,82.76
2023-05-14T03:05:04.908Z,82.82
2023-05-14T03:07:33.534Z,82.79
2023-05-14T03:10:01.816Z,82.73
2023-05-14T03:12:30.590Z,82.45
2023-05-14T03:14:58.801Z,83.00
2023-05-14T03:17:28.868Z,83.09
2023-05-14T03:19:57.888Z,82.86
2023-05-14T03:22:26.333Z,82.85
2023-05-14T03:24:54.953Z,82.89
2023-05-14T03:27:23.781Z,82.82
2023-05-14T03:29:52.395Z,83.03
2023-05-14T03:32:21.443Z,83.17
2023-05-14T03:34:51.303Z,83.26
2023-05-14T03:37:19.536Z,83.42
2023-05-14T03:39:47.940Z,83.65
2023-05-14T03:42:16.239Z,83.49
2023-05-14T03:44:44.864Z,83.65
2023-05-14T03:47:13.335Z,83.30
2023-05-14T03:49:41.814Z,83.54
2023-05-14T03:52:13.946Z,83.31
2023-05-14T03:54:44.779Z,84.09
2023-05-14T03:57:13.368Z,83.68
2023-05-14T03:59:42.499Z,84.18
2023-05-14T04:02:11.030Z,83.92
2023-05-14T04:04:39.383Z,84.36
2023-05-14T04:07:08.904Z,84.10
2023-05-14T04:09:38.650Z,84.53
2023-05-14T04:12:08.109Z,84.35
2023-05-14T04:14:36.815Z,84.59
2023-05-14T04:17:05.480Z,84.43
2023-05-14T04:19:33.787Z,84.53
2023-05-14T04:22:02.112Z,84.81
2023-05-14T04:24:30.719Z,84.49
2023-05-14T04:27:00.593Z,84.83
2023-05-14T04:29:28.883Z,84.92
2023-05-14T04:31:57.797Z,85.18
2023-05-14T04:34:26.451Z,85.34
2023-05-14T04:36:54.737Z,85.66
2023-05-14T04:39:23.496Z,85.83
2023-05-14T04:41:51.814Z,86.40
2023-05-14T04:44:21.534Z,86.56
2023-05-14T04:46:49.864Z,86.72
2023-05-14T04:49:21.017Z,86.87
2023-05-14T04:51:49.684Z,86.65
2023-05-14T04:54:17.994Z,86.77
2023-05-14T04:56:46.261Z,86.78
2023-05-14T04:59:14.595Z,87.16
2023-05-14T05:01:45.635Z,87.79
2023-05-14T05:04:14.282Z,87.90
2023-05-14T05:06:42.595Z,87.60
2023-05-14T05:09:10.939Z,87.69
2023-05-14T05:11:39.747Z,87.57
2023-05-14T05:14:07.977Z,87.44
2023-05-14T05:16:36.648Z,87.51
2023-05-14T05:19:06.623Z,87.10
2023-05-14T05:21:35.470Z,86.89
2023-05-14T05:24:03.764Z,87.13
2023-05-14T05:26:32.013Z,86.72
2023-05-14T05:29:01.032Z,86.82
2023-05-14T05:31:29.374Z,86.71
2023-05-14T05:33:57.823Z,86.84
2023-05-14T05:36:28.812Z,86.77
2023-05-14T05:38:57.604Z,86.80
2023-05-14T05:41:26.723Z,86.56
2023-05-14T05:43:55.100Z,86.67
2023-05-14T05:46:23.550Z,86.52
2023-05-14T05:48:53.338Z,86.49
2023-05-14T05:51:21.698Z,86.50
2023-05-14T05:53:51.343Z,86.53
2023-05-14T05:56:19.613Z,86.45
2023-05-14T05:58:47.906Z,86.33
2023-05-14T06:01:16.231Z,86.54
2023-05-14T06:03:46.917Z,86.78
2023-05-14T06:06:16.744Z,86.46
2023-05-14T06:08:45.019Z,86.27
2023-05-14T06:11:17.072Z,85.94
2023-05-14T06:13:45.502Z,85.97
2023-05-14T06:16:14.102Z,86.10
2023-05-14T06:18:42.528Z,86.45
2023-05-14T06:21:10.872Z,86.78
2023-05-14T06:23:39.172Z,86.85
2023-05-14T06:26:07.839Z,86.72
2023-05-14T06:28:37.600Z,86.89
2023-05-14T06:31:06.051Z,86.86
2023-05-14T06:33:34.376Z,86.96
2023-05-14T06:36:07.905Z,86.86
2023-05-14T06:38:36.173Z,87.01
2023-05-14T06:41:04.408Z,86.69
2023-05-14T06:43:32.669Z,86.85
2023-05-14T06:46:02.653Z,86.82
2023-05-14T06:48:31.098Z,86.88
2023-05-14T06:50:59.540Z,86.83
2023-05-14T06:53:27.869Z,86.37
2023-05-14T06:55:56.472Z,86.45
2023-05-14T06:58:24.691Z,86.14
2023-05-14T07:00:52.938Z,85.95
2023-05-14T07:03:23.063Z,85.87
2023-05-14T07:05:52.029Z,85.84
2023-05-14T07:08:20.261Z,85.82
2023-05-14T07:10:48.674Z,85.43
2023-05-14T07:13:17.186Z,85.18
2023-05-14T07:15:45.415Z,85.37
2023-05-14T07:18:13.869Z,85.30
2023-05-14T07:20:43.629Z,84.63
2023-05-14T07:23:12.251Z,84.66
2023-05-14T07:25:40.619Z,83.88
2023-05-14T07:28:08.924Z,84.03
2023-05-14T07:30:37.551Z,84.08
2023-05-14T07:33:05.955Z,83.86
2023-05-14T07:35:34.302Z,83.80
2023-05-14T07:38:05.810Z,83.89
2023-05-14T07:40:34.484Z,83.95
2023-05-14T07:43:02.729Z,83.54
2023-05-14T07:45:31.048Z,83.44
2023-05-14T07:47:59.442Z,83.42
2023-05-14T07:50:28.139Z,82.83
2023-05-14T07:52:56.380Z,81.81
2023-05-14T07:55:26.114Z,81.76
2023-05-14T07:57:54.744Z,81.38
2023-05-14T08:00:23.573Z,81.01
2023-05-14T08:02:52.547Z,81.66
2023-05-14T08:05:21.098Z,81.14
2023-05-14T08:07:49.710Z,81.20
2023-05-14T08:10:18.004Z,81.40
2023-05-14T08:12:48.033Z,81.21
2023-05-14T08:15:16.520Z,80.85
2023-05-14T08:17:44.820Z,80.69
2023-05-14T08:20:13.436Z,80.26
2023-05-14T08:22:41.758Z,80.23
2023-05-14T08:25:10.629Z,80.02
2023-05-14T08:27:38.907Z,79.64
2023-05-14T08:30:09.693Z,78.99
2023-05-14T08:32:38.668Z,78.65
2023-05-14T08:35:08.430Z,78.09
2023-05-14T08:37:36.654Z,78.04
2023-05-14T08:40:05.408Z,78.10
2023-05-14T08:42:34.138Z,78.25
2023-05-14T08:45:03.748Z,78.57
2023-05-14T08:47:33.726Z,77.79
2023-05-14T08:50:05.050Z,77.30
2023-05-14T08:52:34.166Z,77.77
2023-05-14T08:55:05.398Z,77.44
2023-05-14T08:57:35.164Z,77.20
2023-05-14T09:00:08.417Z,77.05
2023-05-14T09:02:38.801Z,76.78
2023-05-14T09:05:09.441Z,77.11
2023-05-14T09:07:38.117Z,76.47
2023-05-14T09:10:09.102Z,76.26
2023-05-14T09:12:37.697Z,75.63
2023-05-14T09:15:07.355Z,73.93
2023-05-14T09:17:37.564Z,73.77
2023-05-14T09:20:07.319Z,72.50
2023-05-14T09:22:36.202Z,70.85
2023-05-14T09:25:06.990Z,70.82
2023-05-14T09:27:35.702Z,70.44
2023-05-14T09:30:09.683Z,67.13
2023-05-14T09:32:41.108Z,65.46
2023-05-14T09:35:18.521Z,62.41
2023-05-14T09:37:49.060Z,64.83
2023-05-14T09:40:18.849Z,65.16
2023-05-14T09:42:48.307Z,62.86
2023-05-14T09:45:17.542Z,62.60
2023-05-14T09:47:47.553Z,62.54
2023-05-14T09:50:16.020Z,62.41
2023-05-14T09:52:44.338Z,63.02
2023-05-14T09:55:12.900Z,62.83
2023-05-14T09:57:41.260Z,62.77
2023-05-14T10:00:12.868Z,63.07
2023-05-14T10:02:43.208Z,63.20
2023-05-14T10:05:14.018Z,62.15
2023-05-14T10:07:46.386Z,61.24
2023-05-14T10:10:17.824Z,59.62
2023-05-14T10:12:52.574Z,60.41
2023-05-14T10:15:25.268Z,60.71
2023-05-14T10:17:58.984Z,58.65
2023-05-14T10:20:30.021Z,59.65
2023-05-14T10:22:59.442Z,59.42
2023-05-14T10:25:28.432Z,58.27
2023-05-14T10:27:57.178Z,58.24
2023-05-14T10:30:26.199Z,56.42
2023-05-14T10:33:10.370Z,57.14
2023-05-14T10:36:01.788Z,56.96
2023-05-14T10:38:30.859Z,57.93
2023-05-14T10:41:04.425Z,58.82
2023-05-14T10:43:38.672Z,58.49
2023-05-14T10:46:08.339Z,56.93
2023-05-14T10:48:38.750Z,55.65
2023-05-14T10:51:11.636Z,54.80
2023-05-14T10:53:41.703Z,56.82
2023-05-14T10:56:11.408Z,56.37
2023-05-14T10:58:41.641Z,54.90
2023-05-14T11:01:13.233Z,54.54
2023-05-14T11:03:43.319Z,55.20
2023-05-14T11:06:15.561Z,55.82
2023-05-14T11:08:52.746Z,55.59
2023-05-14T11:11:21.887Z,56.01
2023-05-14T11:13:51.910Z,56.11
2023-05-14T11:16:24.260Z,56.63
2023-05-14T11:19:03.501Z,56.84
2023-05-14T11:21:34.005Z,57.60
2023-05-14T11:24:03.855Z,56.90
2023-05-14T11:26:33.179Z,58.01
2023-05-14T11:29:01.688Z,58.41
2023-05-14T11:31:30.134Z,59.25
2023-05-14T11:33:58.529Z,58.58
2023-05-14T11:36:26.751Z,59.53
2023-05-14T11:38:56.455Z,59.73
2023-05-14T11:41:26.406Z,59.07
2023-05-14T11:43:54.946Z,58.86
2023-05-14T11:46:23.915Z,58.38
2023-05-14T11:48:52.526Z,57.94
2023-05-14T11:51:23.137Z,55.83
2023-05-14T11:53:51.366Z,54.86
2023-05-14T11:56:22.665Z,56.12
2023-05-14T11:58:51.050Z,55.05
2023-05-14T12:01:19.636Z,55.56
2023-05-14T12:03:48.042Z,54.67
2023-05-14T12:06:16.317Z,53.28
2023-05-14T12:08:44.530Z,53.58
2023-05-14T12:11:14.210Z,54.00
2023-05-14T12:13:43.863Z,52.79
2023-05-14T12:16:14.235Z,54.13
2023-05-14T12:18:44.547Z,53.39
2023-05-14T12:21:13.392Z,52.71
2023-05-14T12:23:42.060Z,52.24
2023-05-14T12:26:10.874Z,52.01
2023-05-14T12:28:43.495Z,51.70
2023-05-14T12:31:13.451Z,50.89
2023-05-14T12:33:43.027Z,49.22
2023-05-14T12:36:21.094Z,49.64
2023-05-14T12:38:50.658Z,51.30
2023-05-14T12:41:18.951Z,52.21
2023-05-14T12:43:49.991Z,52.63
2023-05-14T12:46:19.717Z,53.13
2023-05-14T12:48:48.828Z,52.64
2023-05-14T12:51:18.946Z,50.49
2023-05-14T12:53:47.243Z,52.60
2023-05-14T12:56:16.143Z,53.18
2023-05-14T12:58:44.323Z,51.45
2023-05-14T13:01:12.999Z,51.77
2023-05-14T13:03:42.887Z,50.87
2023-05-14T13:06:11.123Z,51.83
2023-05-14T13:08:40.534Z,52.28
2023-05-14T13:11:11.556Z,52.54
2023-05-14T13:13:39.920Z,52.00
2023-05-14T13:16:08.741Z,51.25
2023-05-14T13:18:37.111Z,51.27
2023-05-14T13:21:07.011Z,51.89
2023-05-14T13:23:36.052Z,52.70
2023-05-14T13:26:04.616Z,53.66
2023-05-14T13:28:33.053Z,53.20
2023-05-14T13:31:09.152Z,52.56
2023-05-14T13:33:38.624Z,53.18
2023-05-14T13:36:09.303Z,52.96
2023-05-14T13:38:37.611Z,53.49
2023-05-14T13:41:06.251Z,53.34
2023-05-14T13:43:35.883Z,51.59
2023-05-14T13:46:06.112Z,51.89
2023-05-14T13:48:34.481Z,51.64
2023-05-14T13:51:02.877Z,51.64
2023-05-14T13:53:32.628Z,52.19
2023-05-14T13:56:01.916Z,52.55
2023-05-14T13:58:30.192Z,52.27
2023-05-14T14:00:58.492Z,53.08
2023-05-14T14:03:26.766Z,52.37
2023-05-14T14:05:55.007Z,52.90
2023-05-14T14:08:24.514Z,54.53
2023-05-14T14:10:55.833Z,55.23
2023-05-14T14:13:24.877Z,54.39
2023-05-14T14:15:55.936Z,54.40
2023-05-14T14:18:25.873Z,54.11
2023-05-14T14:20:54.138Z,54.29
2023-05-14T14:23:22.315Z,52.09
2023-05-14T14:25:50.748Z,52.42
2023-05-14T14:28:20.452Z,52.85
2023-05-14T14:30:48.731Z,52.01
2023-05-14T14:33:17.073Z,53.09
2023-05-14T14:35:45.642Z,53.99
2023-05-14T14:38:15.459Z,54.24
2023-05-14T14:40:43.678Z,53.07
2023-05-14T14:43:11.848Z,54.91
2023-05-14T14:45:42.947Z,54.37
2023-05-14T14:48:25.523Z,53.43
2023-05-14T14:50:54.413Z,53.89
2023-05-14T14:53:23.216Z,53.88
2023-05-14T14:55:52.296Z,53.70
2023-05-14T14:58:22.030Z,54.56
2023-05-14T15:00:55.091Z,53.42
2023-05-14T15:03:26.873Z,54.43
2023-05-14T15:05:55.871Z,54.19
2023-05-14T15:08:27.747Z,54.93
2023-05-14T15:10:59.620Z,55.60
2023-05-14T15:13:28.631Z,55.25
2023-05-14T15:15:59.000Z,54.51
2023-05-14T15:18:27.727Z,54.16
2023-05-14T15:20:57.649Z,55.88
2023-05-14T15:23:28.905Z,56.72
2023-05-14T15:25:57.176Z,56.49
2023-05-14T15:28:25.365Z,56.64
2023-05-14T15:30:53.661Z,55.79
2023-05-14T15:33:24.075Z,55.66
2023-05-14T15:35:52.613Z,55.17
2023-05-14T15:38:20.704Z,54.83
2023-05-14T15:40:48.977Z,54.41
2023-05-14T15:43:17.147Z,53.93
2023-05-14T15:45:46.565Z,54.94
2023-05-14T15:48:15.364Z,53.08
2023-05-14T15:50:45.132Z,53.96
2023-05-14T15:53:13.307Z,53.07
2023-05-14T15:55:41.978Z,54.49
2023-05-14T15:58:10.472Z,55.07
2023-05-14T16:00:38.641Z,55.52
2023-05-14T16:03:07.216Z,56.61
2023-05-14T16:05:35.706Z,57.45
2023-05-14T16:08:05.244Z,57.18
2023-05-14T16:10:33.444Z,57.70
2023-05-14T16:13:01.719Z,58.07
2023-05-14T16:15:30.193Z,58.72
2023-05-14T16:17:58.667Z,59.13
2023-05-14T16:20:26.864Z,59.49
2023-05-14T16:22:54.975Z,59.32
2023-05-14T16:25:24.771Z,59.39
2023-05-14T16:27:52.980Z,59.66
2023-05-14T16:30:21.158Z,59.24
2023-05-14T16:32:49.693Z,59.55
2023-05-14T16:35:18.308Z,59.92
2023-05-14T16:37:48.086Z,60.37
2023-05-14T16:40:16.499Z,59.67
2023-05-14T16:42:49.055Z,59.58
2023-05-14T16:45:17.549Z,59.62
2023-05-14T16:47:46.000Z,60.22
2023-05-14T16:50:14.534Z,61.57
2023-05-14T16:52:43.664Z,62.13
2023-05-14T16:55:12.228Z,62.16
2023-05-14T16:57:40.923Z,62.30
2023-05-14T17:00:12.307Z,62.09
2023-05-14T17:02:40.572Z,62.38
2023-05-14T17:05:09.680Z,62.30
2023-05-14T17:07:39.625Z,62.56
2023-05-14T17:10:08.906Z,62.77
2023-05-14T17:12:37.088Z,62.34
2023-05-14T17:15:06.203Z,62.81
2023-05-14T17:17:36.400Z,62.58
2023-05-14T17:20:06.422Z,62.64
2023-05-14T17:22:34.708Z,63.29
2023-05-14T17:25:02.985Z,63.76
2023-05-14T17:27:33.320Z,64.13
2023-05-14T17:30:01.833Z,64.44
2023-05-14T17:32:31.207Z,64.21
2023-05-14T17:35:01.137Z,64.10
2023-05-14T17:37:29.456Z,64.21
2023-05-14T17:39:58.613Z,64.40
2023-05-14T17:42:26.886Z,64.81
2023-05-14T17:44:56.376Z,65.03
2023-05-14T17:47:24.547Z,65.77
2023-05-14T17:49:53.105Z,66.35
2023-05-14T17:52:22.830Z,66.46
2023-05-14T17:54:51.385Z,66.50
2023-05-14T17:57:19.699Z,66.73
2023-05-14T17:59:47.838Z,67.06
2023-05-14T18:02:16.064Z,67.01
2023-05-14T18:04:44.264Z,67.16
2023-05-14T18:07:12.487Z,67.23
2023-05-14T18:09:42.430Z,67.55
2023-05-14T18:12:11.013Z,67.62
2023-05-14T18:14:39.224Z,67.95
2023-05-14T18:17:07.529Z,68.05
2023-05-14T18:19:36.707Z,68.06
2023-05-14T18:22:05.330Z,68.03
2023-05-14T18:24:33.599Z,67.90
2023-05-14T18:27:03.547Z,68.31
2023-05-14T18:29:31.747Z,68.09
2023-05-14T18:32:00.896Z,67.83
2023-05-14T18:34:29.245Z,67.89
2023-05-14T18:36:57.902Z,67.88
2023-05-14T18:39:26.191Z,68.04
2023-05-14T18:41:55.217Z,68.04
2023-05-14T18:44:24.908Z,68.26
2023-05-14T18:46:53.447Z,68.51
2023-05-14T18:49:22.099Z,68.32
2023-05-14T18:51:50.460Z,68.27
2023-05-14T18:54:18.932Z,68.52
2023-05-14T18:56:47.765Z,68.93
2023-05-14T18:59:16.167Z,68.86
2023-05-14T19:01:45.926Z,69.35
2023-05-14T19:04:14.428Z,69.47
2023-05-14T19:06:42.665Z,69.79
2023-05-14T19:09:11.523Z,69.85
2023-05-14T19:11:39.682Z,69.85
2023-05-14T19:14:09.112Z,70.28
2023-05-14T19:16:37.394Z,70.80
2023-05-14T19:19:07.040Z,70.97
2023-05-14T19:21:35.396Z,71.37
2023-05-14T19:24:03.596Z,71.41
2023-05-14T19:26:31.822Z,71.36
2023-05-14T19:29:00.012Z,71.37
2023-05-14T19:31:28.927Z,71.67
2023-05-14T19:33:57.388Z,71.53
2023-05-14T19:36:27.190Z,71.66
2023-05-14T19:38:55.390Z,71.30
2023-05-14T19:41:23.567Z,71.22
2023-05-14T19:43:52.069Z,71.20
2023-05-14T19:46:20.357Z,71.05
2023-05-14T19:48:48.610Z,71.23
2023-05-14T19:51:18.403Z,71.58
2023-05-14T19:53:48.029Z,71.68
2023-05-14T19:56:16.243Z,72.30
2023-05-14T19:58:44.886Z,72.04
2023-05-14T20:01:13.240Z,72.05
2023-05-14T20:03:41.608Z,71.86
2023-05-14T20:06:10.910Z,71.97
2023-05-14T20:08:39.210Z,71.83
2023-05-14T20:11:10.167Z,71.62
2023-05-14T20:13:38.519Z,71.94
2023-05-14T20:16:07.419Z,72.04
2023-05-14T20:18:35.779Z,72.19
2023-05-14T20:21:04.140Z,72.40
2023-05-14T20:23:32.504Z,72.00
2023-05-14T20:26:01.954Z,72.23
2023-05-14T20:28:31.700Z,72.16
2023-05-14T20:31:00.301Z,72.24
2023-05-14T20:33:29.285Z,72.61
2023-05-14T20:35:57.801Z,72.69
2023-05-14T20:38:29.575Z,72.72
2023-05-14T20:40:57.853Z,72.63
2023-05-14T20:43:27.783Z,72.78
2023-05-14T20:45:58.915Z,72.70
2023-05-14T20:48:27.582Z,73.18
2023-05-14T20:50:55.856Z,73.23
2023-05-14T20:53:25.470Z,73.17
2023-05-14T20:55:53.713Z,73.46
2023-05-14T20:58:22.050Z,73.64
2023-05-14T21:00:50.211Z,74.33
2023-05-14T21:03:20.165Z,75.54
2023-05-14T21:05:48.479Z,76.21
2023-05-14T21:08:17.278Z,76.54
2023-05-14T21:10:45.505Z,76.78
2023-05-14T21:13:13.735Z,76.99
2023-05-14T21:15:42.016Z,77.42
2023-05-14T21:18:10.326Z,77.43
2023-05-14T21:20:40.081Z,77.34
2023-05-14T21:23:08.385Z,77.34
2023-05-14T21:25:36.942Z,77.81
2023-05-14T21:28:05.287Z,78.04
2023-05-14T21:30:33.503Z,78.29
2023-05-14T21:33:01.802Z,78.52
2023-05-14T21:35:30.041Z,79.05
2023-05-14T21:37:59.788Z,79.33
2023-05-14T21:40:27.972Z,79.68
2023-05-14T21:42:56.268Z,80.01
2023-05-14T21:45:37.441Z,79.96
2023-05-14T21:48:06.378Z,80.02
2023-05-14T21:50:34.653Z,80.67
2023-05-14T21:53:04.367Z,80.94
2023-05-14T21:55:32.784Z,80.50
2023-05-14T21:58:01.270Z,79.50
2023-05-14T22:00:29.582Z,79.42
2023-05-14T22:02:58.097Z,78.55
2023-05-14T22:05:26.872Z,78.35
2023-05-14T22:07:55.331Z,78.23
2023-05-14T22:10:25.238Z,77.84
2023-05-14T22:12:53.454Z,77.75
2023-05-14T22:15:21.891Z,77.74
2023-05-14T22:17:50.256Z,77.61
2023-05-14T22:20:18.767Z,77.54
2023-05-14T22:22:47.012Z,77.33
2023-05-14T22:25:15.275Z,77.17
2023-05-14T22:27:45.033Z,77.05
2023-05-14T22:30:13.549Z,76.79
2023-05-14T22:32:42.492Z,76.99
2023-05-14T22:35:11.344Z,77.15
2023-05-14T22:37:39.449Z,77.15
2023-05-14T22:40:09.213Z,77.17
2023-05-14T22:42:37.378Z,77.02
2023-05-14T22:45:08.506Z,76.91
2023-05-14T22:47:36.718Z,77.07
2023-05-14T22:50:07.438Z,77.33
2023-05-14T22:52:35.977Z,77.41
2023-05-14T22:55:04.167Z,77.33
2023-05-14T22:57:32.540Z,77.31
2023-05-14T23:00:00.867Z,77.29
2023-05-14T23:02:30.539Z,77.15
2023-05-14T23:04:58.834Z,77.77
2023-05-14T23:07:27.108Z,77.56
2023-05-14T23:09:55.582Z,77.69
2023-05-14T23:12:23.842Z,77.65
2023-05-14T23:14:52.100Z,77.69
2023-05-14T23:17:20.466Z,77.99
2023-05-14T23:19:50.182Z,78.11
2023-05-14T23:22:18.805Z,78.40
2023-05-14T23:24:47.060Z,78.59
2023-05-14T23:27:15.255Z,78.93
2023-05-14T23:29:44.213Z,79.19
2023-05-14T23:32:13.026Z,79.51
2023-05-14T23:34:41.460Z,79.70
2023-05-14T23:37:11.496Z,80.09
2023-05-14T23:39:39.954Z,80.10
2023-05-14T23:42:09.295Z,80.59
2023-05-14T23:44:37.617Z,80.82
2023-05-14T23:47:07.476Z,81.16
2023-05-14T23:49:36.197Z,81.41
2023-05-14T23:52:04.530Z,81.51
2023-05-14T23:54:34.180Z,81.68
2023-05-14T23:57:04.508Z,81.78
2023-05-14T23:59:32.807Z,81.67
